»·PEaware :: N12RC KTUS-KPHX

N12RC :: KTUS-KPHX

FLIGHT INFORMATION

Flight Status: Arrived
Operator: Privately registered:
United States
More flights under this callsign
Pilot: Bruce F. (35328)
Aircraft: BEECH AIRCRAFT BONANZA
(BE36)
More flights by this aircraft type
Origin: KTUS Tucson Intl
United States
Destination: KPHX Phoenix Sky Harbor Intl
United States
More flights between these airports :: More routes between these airports
Route: TUS V105 PXR
File this flight plan on PilotEdge
Remarks:
Altitude:
(Current/Filed)
8,000ft
Speed:
(Current/Filed)
175kts
Departed: 21-Jul-23 07:25 AM
Arrived: 21-Jul-23 08:11 AM
Distance/Time
Traveled:
96nm/0:46
Distance/Time
To Go:
Arrived

Flight Plot

Page will automatically refresh every two minutes.

Flight plan parsing failed; only flown route is shown


Map Options




Map Legend


Flown Route
Filed Route
Departure Airport
Arrival Airport
Navaid (VOR, NDB)
Fix

Horizontal Profiles

Position Reports

Time Latitude Longitude Heading Altitude Ground
Speed
21-Jul-23 07:09 32.122554 -110.942041 223 2585ft 0kts
21-Jul-23 07:10 32.122554 -110.942041 223 2585ft 0kts
21-Jul-23 07:11 32.122554 -110.942041 223 2585ft 0kts
21-Jul-23 07:12 32.122554 -110.942041 223 2585ft 0kts
21-Jul-23 07:13 32.122554 -110.942041 223 2585ft 0kts
21-Jul-23 07:14 32.122554 -110.942041 223 2585ft 0kts
21-Jul-23 07:15 32.122554 -110.942041 223 2585ft 0kts
21-Jul-23 07:16 32.122554 -110.942041 223 2585ft 0kts
21-Jul-23 07:17 32.122554 -110.942041 223 2585ft 0kts
21-Jul-23 07:18 32.122554 -110.942041 223 2585ft 0kts
21-Jul-23 07:19 32.122554 -110.942041 223 2585ft 0kts
21-Jul-23 07:20 32.122474 -110.942676 271 2585ft 12kts
21-Jul-23 07:21 32.124228 -110.946373 317 2575ft 14kts
21-Jul-23 07:22 32.124498 -110.947871 227 2571ft 0kts
21-Jul-23 07:23 32.124064 -110.948367 206 2571ft 11kts
21-Jul-23 07:24 32.114812 -110.937715 135 2766ft 97kts
21-Jul-23 07:25 32.095721 -110.909630 129 4123ft 127kts
21-Jul-23 07:26 32.073162 -110.874908 129 5596ft 139kts
21-Jul-23 07:27 32.046461 -110.838797 129 7045ft 149kts
21-Jul-23 07:28 32.020159 -110.856937 271 8373ft 150kts
21-Jul-23 07:29 32.053145 -110.892281 332 8416ft 177kts
21-Jul-23 07:30 32.096987 -110.918997 309 8406ft 181kts
21-Jul-23 07:31 32.123040 -110.970090 303 8412ft 182kts
21-Jul-23 07:32 32.148967 -111.021923 303 8406ft 183kts
21-Jul-23 07:33 32.174776 -111.073649 302 8401ft 182kts
21-Jul-23 07:34 32.200587 -111.125442 303 8403ft 182kts
21-Jul-23 07:35 32.226272 -111.176999 302 8421ft 181kts
21-Jul-23 07:36 32.250745 -111.228074 301 8555ft 180kts
21-Jul-23 07:37 32.275419 -111.280072 301 8565ft 182kts
21-Jul-23 07:38 32.300295 -111.332587 301 8565ft 183kts
21-Jul-23 07:39 32.325179 -111.385193 301 8573ft 183kts
21-Jul-23 07:40 32.352171 -111.436079 304 8572ft 182kts
21-Jul-23 07:41 32.379525 -111.486585 304 8569ft 182kts
21-Jul-23 07:42 32.418978 -111.523322 326 8573ft 181kts
21-Jul-23 07:43 32.460447 -111.557267 326 8577ft 181kts
21-Jul-23 07:44 32.501829 -111.591231 326 8578ft 181kts
21-Jul-23 07:45 32.543303 -111.625275 325 8578ft 181kts
21-Jul-23 07:46 32.584771 -111.659399 325 8583ft 181kts
21-Jul-23 07:47 32.626278 -111.693582 325 8581ft 180kts
21-Jul-23 07:48 32.667656 -111.727688 325 8582ft 181kts
21-Jul-23 07:49 32.709070 -111.761849 324 8580ft 181kts
21-Jul-23 07:50 32.750687 -111.796246 324 8572ft 181kts
21-Jul-23 07:51 32.791982 -111.830425 324 8577ft 180kts
21-Jul-23 07:52 32.833350 -111.864665 324 8567ft 181kts
21-Jul-23 07:53 32.874774 -111.899024 324 8565ft 182kts
21-Jul-23 07:54 32.923554 -111.912583 352 8565ft 183kts
21-Jul-23 07:55 32.974375 -111.918334 353 8550ft 183kts
21-Jul-23 07:56 33.025396 -111.924129 352 8553ft 184kts
21-Jul-23 07:57 33.076791 -111.929903 353 8083ft 183kts
21-Jul-23 07:58 33.126744 -111.935495 353 7354ft 177kts
21-Jul-23 07:59 33.175623 -111.940990 353 6661ft 175kts
21-Jul-23 08:00 33.224111 -111.946428 353 5948ft 174kts
21-Jul-23 08:01 33.269643 -111.932150 30 5233ft 179kts
21-Jul-23 08:02 33.311643 -111.899767 30 4517ft 180kts
21-Jul-23 08:03 33.352384 -111.868204 30 4250ft 165kts
21-Jul-23 08:04 33.395302 -111.840204 5 3342ft 181kts
21-Jul-23 08:05 33.441605 -111.845049 298 2562ft 169kts
21-Jul-23 08:06 33.428785 -111.892133 259 2518ft 146kts
21-Jul-23 08:07 33.428794 -111.937903 269 2161ft 106kts
21-Jul-23 08:08 33.428846 -111.967106 268 1708ft 83kts
21-Jul-23 08:09 33.428819 -111.997426 269 1205ft 84kts
21-Jul-23 08:10 33.428006 -112.010917 215 1116ft 1kts
21-Jul-23 08:11 33.427750 -112.016625 276 1115ft 12kts
21-Jul-23 08:12 33.427754 -112.022738 270 1112ft 13kts
21-Jul-23 08:13 33.426476 -112.023681 184 1112ft 0kts

Navigation Log

Ident Type
Flight plan parsing failed, navigation log unavailable